sensor_id;sensor_type;location;lat;lon;timestamp;temperature;humidity
8103;DHT22;4094;49.948;11.574;2024-03-08T00:01:56;4.90;58.20
8103;DHT22;4094;49.948;11.574;2024-03-08T00:04:46;4.90;58.40
8103;DHT22;4094;49.948;11.574;2024-03-08T00:07:35;4.90;58.30
8103;DHT22;4094;49.948;11.574;2024-03-08T00:10:25;4.80;58.40
8103;DHT22;4094;49.948;11.574;2024-03-08T00:13:17;4.80;58.50
8103;DHT22;4094;49.948;11.574;2024-03-08T00:16:06;4.80;58.50
8103;DHT22;4094;49.948;11.574;2024-03-08T00:18:58;4.80;58.60
8103;DHT22;4094;49.948;11.574;2024-03-08T00:21:47;4.70;58.70
8103;DHT22;4094;49.948;11.574;2024-03-08T00:24:36;4.70;58.60
8103;DHT22;4094;49.948;11.574;2024-03-08T00:27:26;4.70;58.70
8103;DHT22;4094;49.948;11.574;2024-03-08T00:30:15;4.70;58.70
8103;DHT22;4094;49.948;11.574;2024-03-08T00:33:04;4.70;58.70
8103;DHT22;4094;49.948;11.574;2024-03-08T00:35:55;4.60;58.70
8103;DHT22;4094;49.948;11.574;2024-03-08T00:38:45;4.60;58.80
8103;DHT22;4094;49.948;11.574;2024-03-08T00:41:34;4.60;58.90
8103;DHT22;4094;49.948;11.574;2024-03-08T00:44:23;4.50;58.90
8103;DHT22;4094;49.948;11.574;2024-03-08T00:47:13;4.50;59.00
8103;DHT22;4094;49.948;11.574;2024-03-08T00:50:03;4.50;59.10
8103;DHT22;4094;49.948;11.574;2024-03-08T00:52:54;4.50;59.30
8103;DHT22;4094;49.948;11.574;2024-03-08T00:55:44;4.50;59.30
8103;DHT22;4094;49.948;11.574;2024-03-08T00:58:34;4.40;59.30
8103;DHT22;4094;49.948;11.574;2024-03-08T01:01:26;4.40;59.40
8103;DHT22;4094;49.948;11.574;2024-03-08T01:04:15;4.40;59.50
8103;DHT22;4094;49.948;11.574;2024-03-08T01:07:05;4.40;59.50
8103;DHT22;4094;49.948;11.574;2024-03-08T01:09:54;4.40;59.50
8103;DHT22;4094;49.948;11.574;2024-03-08T01:12:43;4.40;59.50
8103;DHT22;4094;49.948;11.574;2024-03-08T01:15:33;4.30;59.50
8103;DHT22;4094;49.948;11.574;2024-03-08T01:18:24;4.30;59.50
8103;DHT22;4094;49.948;11.574;2024-03-08T01:21:13;4.30;59.60
8103;DHT22;4094;49.948;11.574;2024-03-08T01:24:03;4.30;59.60
8103;DHT22;4094;49.948;11.574;2024-03-08T01:26:53;4.30;59.60
8103;DHT22;4094;49.948;11.574;2024-03-08T01:29:42;4.30;59.60
8103;DHT22;4094;49.948;11.574;2024-03-08T01:32:31;4.30;59.70
8103;DHT22;4094;49.948;11.574;2024-03-08T01:35:23;4.20;59.70
8103;DHT22;4094;49.948;11.574;2024-03-08T01:38:14;4.20;59.80
8103;DHT22;4094;49.948;11.574;2024-03-08T01:41:03;4.20;59.80
8103;DHT22;4094;49.948;11.574;2024-03-08T01:43:52;4.10;59.90
8103;DHT22;4094;49.948;11.574;2024-03-08T01:46:42;4.10;59.90
8103;DHT22;4094;49.948;11.574;2024-03-08T01:49:32;4.10;60.00
8103;DHT22;4094;49.948;11.574;2024-03-08T01:52:23;4.10;60.00
8103;DHT22;4094;49.948;11.574;2024-03-08T01:55:14;4.10;60.20
8103;DHT22;4094;49.948;11.574;2024-03-08T01:58:05;4.00;60.20
8103;DHT22;4094;49.948;11.574;2024-03-08T02:00:54;4.00;60.30
8103;DHT22;4094;49.948;11.574;2024-03-08T02:03:45;4.00;60.50
8103;DHT22;4094;49.948;11.574;2024-03-08T02:06:34;3.90;60.50
8103;DHT22;4094;49.948;11.574;2024-03-08T02:09:27;3.90;60.60
8103;DHT22;4094;49.948;11.574;2024-03-08T02:12:16;3.90;60.70
8103;DHT22;4094;49.948;11.574;2024-03-08T02:15:09;3.90;60.60
8103;DHT22;4094;49.948;11.574;2024-03-08T02:17:59;3.90;60.70
8103;DHT22;4094;49.948;11.574;2024-03-08T02:20:50;3.90;60.70
8103;DHT22;4094;49.948;11.574;2024-03-08T02:23:40;3.90;60.80
8103;DHT22;4094;49.948;11.574;2024-03-08T02:26:29;3.90;60.90
8103;DHT22;4094;49.948;11.574;2024-03-08T02:29:18;3.90;60.80
8103;DHT22;4094;49.948;11.574;2024-03-08T02:32:09;3.80;60.70
8103;DHT22;4094;49.948;11.574;2024-03-08T02:34:58;3.90;60.80
8103;DHT22;4094;49.948;11.574;2024-03-08T02:37:49;3.80;61.00
8103;DHT22;4094;49.948;11.574;2024-03-08T02:40:39;3.80;61.10
8103;DHT22;4094;49.948;11.574;2024-03-08T02:43:28;3.80;61.20
8103;DHT22;4094;49.948;11.574;2024-03-08T02:46:17;3.70;61.20
8103;DHT22;4094;49.948;11.574;2024-03-08T02:49:06;3.70;61.10
8103;DHT22;4094;49.948;11.574;2024-03-08T02:51:56;3.70;61.30
8103;DHT22;4094;49.948;11.574;2024-03-08T02:54:48;3.70;61.30
8103;DHT22;4094;49.948;11.574;2024-03-08T02:57:38;3.70;61.40
8103;DHT22;4094;49.948;11.574;2024-03-08T03:00:27;3.70;61.60
8103;DHT22;4094;49.948;11.574;2024-03-08T03:03:18;3.70;61.40
8103;DHT22;4094;49.948;11.574;2024-03-08T03:06:07;3.70;61.40
8103;DHT22;4094;49.948;11.574;2024-03-08T03:08:57;3.70;61.50
8103;DHT22;4094;49.948;11.574;2024-03-08T03:11:47;3.70;61.50
8103;DHT22;4094;49.948;11.574;2024-03-08T03:14:37;3.60;62.20
8103;DHT22;4094;49.948;11.574;2024-03-08T03:17:27;3.60;61.50
8103;DHT22;4094;49.948;11.574;2024-03-08T03:20:17;3.60;61.50
8103;DHT22;4094;49.948;11.574;2024-03-08T03:23:10;3.60;61.60
8103;DHT22;4094;49.948;11.574;2024-03-08T03:26:03;3.50;61.60
8103;DHT22;4094;49.948;11.574;2024-03-08T03:28:56;3.50;61.70
8103;DHT22;4094;49.948;11.574;2024-03-08T03:31:48;3.50;61.80
8103;DHT22;4094;49.948;11.574;2024-03-08T03:34:37;3.50;62.00
8103;DHT22;4094;49.948;11.574;2024-03-08T03:37:27;3.50;62.10
8103;DHT22;4094;49.948;11.574;2024-03-08T03:40:16;3.50;62.10
8103;DHT22;4094;49.948;11.574;2024-03-08T03:43:07;3.40;62.20
8103;DHT22;4094;49.948;11.574;2024-03-08T03:45:59;3.50;62.40
8103;DHT22;4094;49.948;11.574;2024-03-08T03:48:50;3.40;63.10
8103;DHT22;4094;49.948;11.574;2024-03-08T03:51:39;3.40;62.40
8103;DHT22;4094;49.948;11.574;2024-03-08T03:54:29;3.40;62.40
8103;DHT22;4094;49.948;11.574;2024-03-08T03:57:18;3.40;62.40
8103;DHT22;4094;49.948;11.574;2024-03-08T04:00:11;3.40;62.40
8103;DHT22;4094;49.948;11.574;2024-03-08T04:03:05;3.50;62.60
8103;DHT22;4094;49.948;11.574;2024-03-08T04:05:55;3.40;62.40
8103;DHT22;4094;49.948;11.574;2024-03-08T04:08:45;3.40;62.40
8103;DHT22;4094;49.948;11.574;2024-03-08T04:11:34;3.40;62.50
8103;DHT22;4094;49.948;11.574;2024-03-08T04:14:24;3.40;62.40
8103;DHT22;4094;49.948;11.574;2024-03-08T04:17:13;3.40;63.40
8103;DHT22;4094;49.948;11.574;2024-03-08T04:20:04;3.40;62.60
8103;DHT22;4094;49.948;11.574;2024-03-08T04:22:57;3.40;62.60
8103;DHT22;4094;49.948;11.574;2024-03-08T04:25:46;3.40;62.60
8103;DHT22;4094;49.948;11.574;2024-03-08T04:28:36;3.40;62.60
8103;DHT22;4094;49.948;11.574;2024-03-08T04:31:27;3.40;62.70
8103;DHT22;4094;49.948;11.574;2024-03-08T04:34:18;3.40;62.50
8103;DHT22;4094;49.948;11.574;2024-03-08T04:37:09;3.40;62.60
8103;DHT22;4094;49.948;11.574;2024-03-08T04:40:01;3.40;62.60
8103;DHT22;4094;49.948;11.574;2024-03-08T04:42:50;3.40;62.50
8103;DHT22;4094;49.948;11.574;2024-03-08T04:45:40;3.40;62.60
8103;DHT22;4094;49.948;11.574;2024-03-08T04:48:31;3.40;62.60
8103;DHT22;4094;49.948;11.574;2024-03-08T04:51:21;3.40;62.60
8103;DHT22;4094;49.948;11.574;2024-03-08T04:54:11;3.40;62.70
8103;DHT22;4094;49.948;11.574;2024-03-08T04:57:01;3.40;62.90
8103;DHT22;4094;49.948;11.574;2024-03-08T04:59:54;3.40;63.00
8103;DHT22;4094;49.948;11.574;2024-03-08T05:02:43;3.40;63.00
8103;DHT22;4094;49.948;11.574;2024-03-08T05:05:33;3.40;63.10
8103;DHT22;4094;49.948;11.574;2024-03-08T05:08:22;3.50;63.40
8103;DHT22;4094;49.948;11.574;2024-03-08T05:11:12;3.50;63.70
8103;DHT22;4094;49.948;11.574;2024-03-08T05:14:02;3.60;63.90
8103;DHT22;4094;49.948;11.574;2024-03-08T05:16:52;3.70;64.00
8103;DHT22;4094;49.948;11.574;2024-03-08T05:19:41;3.70;63.80
8103;DHT22;4094;49.948;11.574;2024-03-08T05:22:31;3.80;63.70
8103;DHT22;4094;49.948;11.574;2024-03-08T05:25:20;3.80;63.60
8103;DHT22;4094;49.948;11.574;2024-03-08T05:28:11;3.90;63.70
8103;DHT22;4094;49.948;11.574;2024-03-08T05:31:00;3.90;63.60
8103;DHT22;4094;49.948;11.574;2024-03-08T05:33:49;4.00;63.80
8103;DHT22;4094;49.948;11.574;2024-03-08T05:36:39;4.00;63.90
8103;DHT22;4094;49.948;11.574;2024-03-08T05:39:28;4.10;64.20
8103;DHT22;4094;49.948;11.574;2024-03-08T05:42:18;4.10;64.20
8103;DHT22;4094;49.948;11.574;2024-03-08T05:45:09;4.20;64.20
8103;DHT22;4094;49.948;11.574;2024-03-08T05:47:59;4.30;64.40
8103;DHT22;4094;49.948;11.574;2024-03-08T05:50:48;4.30;64.40
8103;DHT22;4094;49.948;11.574;2024-03-08T05:53:37;4.40;64.50
8103;DHT22;4094;49.948;11.574;2024-03-08T05:56:26;4.50;64.60
8103;DHT22;4094;49.948;11.574;2024-03-08T05:59:17;4.50;64.50
8103;DHT22;4094;49.948;11.574;2024-03-08T06:02:07;4.60;64.60
8103;DHT22;4094;49.948;11.574;2024-03-08T06:04:57;4.70;64.80
8103;DHT22;4094;49.948;11.574;2024-03-08T06:07:46;4.80;64.80
8103;DHT22;4094;49.948;11.574;2024-03-08T06:10:35;4.80;64.50
8103;DHT22;4094;49.948;11.574;2024-03-08T06:13:25;4.90;64.50
8103;DHT22;4094;49.948;11.574;2024-03-08T06:16:17;5.00;64.40
8103;DHT22;4094;49.948;11.574;2024-03-08T06:19:08;5.00;64.30
8103;DHT22;4094;49.948;11.574;2024-03-08T06:21:57;5.00;64.00
8103;DHT22;4094;49.948;11.574;2024-03-08T06:24:46;5.00;63.70
8103;DHT22;4094;49.948;11.574;2024-03-08T06:27:36;5.10;63.80
8103;DHT22;4094;49.948;11.574;2024-03-08T06:30:25;5.10;63.70
8103;DHT22;4094;49.948;11.574;2024-03-08T06:33:14;5.10;63.60
8103;DHT22;4094;49.948;11.574;2024-03-08T06:36:06;5.10;63.60
8103;DHT22;4094;49.948;11.574;2024-03-08T06:38:55;5.10;63.60
8103;DHT22;4094;49.948;11.574;2024-03-08T06:41:46;5.00;63.40
8103;DHT22;4094;49.948;11.574;2024-03-08T06:44:39;5.00;63.40
8103;DHT22;4094;49.948;11.574;2024-03-08T06:47:36;5.00;63.30
8103;DHT22;4094;49.948;11.574;2024-03-08T06:50:26;5.00;63.60
8103;DHT22;4094;49.948;11.574;2024-03-08T06:53:17;5.00;63.60
8103;DHT22;4094;49.948;11.574;2024-03-08T06:56:10;5.00;63.70
8103;DHT22;4094;49.948;11.574;2024-03-08T06:59:00;5.10;63.90
8103;DHT22;4094;49.948;11.574;2024-03-08T07:01:50;5.10;64.00
8103;DHT22;4094;49.948;11.574;2024-03-08T07:04:42;5.20;64.20
8103;DHT22;4094;49.948;11.574;2024-03-08T07:07:31;5.30;64.40
8103;DHT22;4094;49.948;11.574;2024-03-08T07:10:23;5.40;64.70
8103;DHT22;4094;49.948;11.574;2024-03-08T07:13:13;5.60;64.50
8103;DHT22;4094;49.948;11.574;2024-03-08T07:16:03;5.70;64.20
8103;DHT22;4094;49.948;11.574;2024-03-08T07:18:53;5.80;64.30
8103;DHT22;4094;49.948;11.574;2024-03-08T07:21:42;5.90;64.00
8103;DHT22;4094;49.948;11.574;2024-03-08T07:24:32;6.10;63.60
8103;DHT22;4094;49.948;11.574;2024-03-08T07:27:39;6.20;63.40
8103;DHT22;4094;49.948;11.574;2024-03-08T07:30:28;6.30;63.20
8103;DHT22;4094;49.948;11.574;2024-03-08T07:33:48;6.40;62.90
8103;DHT22;4094;49.948;11.574;2024-03-08T07:36:39;6.50;62.80
8103;DHT22;4094;49.948;11.574;2024-03-08T07:39:28;6.60;63.00
8103;DHT22;4094;49.948;11.574;2024-03-08T07:42:17;7.00;63.80
8103;DHT22;4094;49.948;11.574;2024-03-08T07:45:09;7.50;63.90
8103;DHT22;4094;49.948;11.574;2024-03-08T07:47:58;8.20;63.30
8103;DHT22;4094;49.948;11.574;2024-03-08T07:50:48;9.00;63.10
8103;DHT22;4094;49.948;11.574;2024-03-08T07:53:38;9.80;61.10
8103;DHT22;4094;49.948;11.574;2024-03-08T07:56:29;10.70;60.20
8103;DHT22;4094;49.948;11.574;2024-03-08T07:59:19;11.40;58.60
8103;DHT22;4094;49.948;11.574;2024-03-08T08:02:10;12.20;57.50
8103;DHT22;4094;49.948;11.574;2024-03-08T08:05:00;12.80;55.50
8103;DHT22;4094;49.948;11.574;2024-03-08T08:07:49;13.40;54.80
8103;DHT22;4094;49.948;11.574;2024-03-08T08:10:40;13.90;53.60
8103;DHT22;4094;49.948;11.574;2024-03-08T08:13:30;14.30;53.20
8103;DHT22;4094;49.948;11.574;2024-03-08T08:16:22;14.60;52.10
8103;DHT22;4094;49.948;11.574;2024-03-08T08:19:13;15.10;51.20
8103;DHT22;4094;49.948;11.574;2024-03-08T08:22:03;15.40;50.40
8103;DHT22;4094;49.948;11.574;2024-03-08T08:24:52;15.70;49.90
8103;DHT22;4094;49.948;11.574;2024-03-08T08:27:42;15.90;49.60
8103;DHT22;4094;49.948;11.574;2024-03-08T08:30:31;16.20;48.40
8103;DHT22;4094;49.948;11.574;2024-03-08T08:33:21;16.30;48.10
8103;DHT22;4094;49.948;11.574;2024-03-08T08:36:14;16.50;47.10
8103;DHT22;4094;49.948;11.574;2024-03-08T08:39:04;16.50;46.90
8103;DHT22;4094;49.948;11.574;2024-03-08T08:41:59;16.50;46.00
8103;DHT22;4094;49.948;11.574;2024-03-08T08:44:49;16.40;46.20
8103;DHT22;4094;49.948;11.574;2024-03-08T08:47:40;16.30;46.00
8103;DHT22;4094;49.948;11.574;2024-03-08T08:50:31;16.20;46.00
8103;DHT22;4094;49.948;11.574;2024-03-08T08:53:21;16.00;46.00
8103;DHT22;4094;49.948;11.574;2024-03-08T08:56:12;15.80;45.30
8103;DHT22;4094;49.948;11.574;2024-03-08T08:59:01;15.60;45.40
8103;DHT22;4094;49.948;11.574;2024-03-08T09:01:51;15.30;45.50
8103;DHT22;4094;49.948;11.574;2024-03-08T09:04:42;14.90;45.80
8103;DHT22;4094;49.948;11.574;2024-03-08T09:07:31;14.50;46.10
8103;DHT22;4094;49.948;11.574;2024-03-08T09:10:23;14.00;46.80
8103;DHT22;4094;49.948;11.574;2024-03-08T09:13:18;13.60;46.90
8103;DHT22;4094;49.948;11.574;2024-03-08T09:16:18;13.20;47.10
8103;DHT22;4094;49.948;11.574;2024-03-08T09:19:07;12.80;48.00
8103;DHT22;4094;49.948;11.574;2024-03-08T09:21:59;12.50;48.90
8103;DHT22;4094;49.948;11.574;2024-03-08T09:24:49;12.40;49.10
8103;DHT22;4094;49.948;11.574;2024-03-08T09:27:40;12.20;49.30
8103;DHT22;4094;49.948;11.574;2024-03-08T09:30:29;12.10;49.70
8103;DHT22;4094;49.948;11.574;2024-03-08T09:33:19;12.00;49.60
8103;DHT22;4094;49.948;11.574;2024-03-08T09:36:08;11.90;49.80
8103;DHT22;4094;49.948;11.574;2024-03-08T09:38:58;11.90;50.40
8103;DHT22;4094;49.948;11.574;2024-03-08T09:41:48;11.80;49.90
8103;DHT22;4094;49.948;11.574;2024-03-08T09:44:39;11.80;50.30
8103;DHT22;4094;49.948;11.574;2024-03-08T09:47:28;11.80;50.70
8103;DHT22;4094;49.948;11.574;2024-03-08T09:50:22;11.80;50.30
8103;DHT22;4094;49.948;11.574;2024-03-08T09:53:14;11.80;50.30
8103;DHT22;4094;49.948;11.574;2024-03-08T09:56:05;11.80;50.50
8103;DHT22;4094;49.948;11.574;2024-03-08T09:58:55;11.90;50.50
8103;DHT22;4094;49.948;11.574;2024-03-08T10:02:13;11.90;51.20
8103;DHT22;4094;49.948;11.574;2024-03-08T10:05:05;12.10;50.80
8103;DHT22;4094;49.948;11.574;2024-03-08T10:07:54;12.20;50.80
8103;DHT22;4094;49.948;11.574;2024-03-08T10:10:44;12.40;50.90
8103;DHT22;4094;49.948;11.574;2024-03-08T10:13:34;12.50;50.60
8103;DHT22;4094;49.948;11.574;2024-03-08T10:16:23;12.70;50.50
8103;DHT22;4094;49.948;11.574;2024-03-08T10:19:15;12.90;50.20
8103;DHT22;4094;49.948;11.574;2024-03-08T10:22:05;13.10;50.30
8103;DHT22;4094;49.948;11.574;2024-03-08T10:24:54;13.30;50.30
8103;DHT22;4094;49.948;11.574;2024-03-08T10:27:44;13.60;49.40
8103;DHT22;4094;49.948;11.574;2024-03-08T10:30:35;13.80;49.30
8103;DHT22;4094;49.948;11.574;2024-03-08T10:33:25;14.00;48.80
8103;DHT22;4094;49.948;11.574;2024-03-08T10:36:16;14.20;48.70
8103;DHT22;4094;49.948;11.574;2024-03-08T10:39:15;14.50;48.10
8103;DHT22;4094;49.948;11.574;2024-03-08T10:42:10;14.80;48.20
8103;DHT22;4094;49.948;11.574;2024-03-08T10:45:06;15.10;47.40
8103;DHT22;4094;49.948;11.574;2024-03-08T10:48:08;15.30;47.20
8103;DHT22;4094;49.948;11.574;2024-03-08T10:50:59;15.40;46.50
8103;DHT22;4094;49.948;11.574;2024-03-08T10:53:52;15.50;46.30
8103;DHT22;4094;49.948;11.574;2024-03-08T10:56:43;15.50;46.20
8103;DHT22;4094;49.948;11.574;2024-03-08T10:59:33;15.50;46.00
8103;DHT22;4094;49.948;11.574;2024-03-08T11:02:26;15.40;46.40
8103;DHT22;4094;49.948;11.574;2024-03-08T11:05:31;15.40;45.70
8103;DHT22;4094;49.948;11.574;2024-03-08T11:08:23;15.40;45.90
8103;DHT22;4094;49.948;11.574;2024-03-08T11:11:27;15.30;46.20
8103;DHT22;4094;49.948;11.574;2024-03-08T11:14:44;15.50;46.30
8103;DHT22;4094;49.948;11.574;2024-03-08T11:17:44;15.60;46.60
8103;DHT22;4094;49.948;11.574;2024-03-08T11:20:34;15.80;46.40
8103;DHT22;4094;49.948;11.574;2024-03-08T11:23:25;15.90;45.60
8103;DHT22;4094;49.948;11.574;2024-03-08T11:26:18;16.00;45.30
8103;DHT22;4094;49.948;11.574;2024-03-08T11:29:34;16.10;45.40
8103;DHT22;4094;49.948;11.574;2024-03-08T11:32:27;16.20;45.40
8103;DHT22;4094;49.948;11.574;2024-03-08T11:35:19;16.30;45.40
8103;DHT22;4094;49.948;11.574;2024-03-08T11:38:09;16.40;45.30
8103;DHT22;4094;49.948;11.574;2024-03-08T11:40:58;16.50;44.90
8103;DHT22;4094;49.948;11.574;2024-03-08T11:43:48;16.60;44.30
8103;DHT22;4094;49.948;11.574;2024-03-08T11:46:39;16.70;44.50
8103;DHT22;4094;49.948;11.574;2024-03-08T11:49:33;16.90;44.50
8103;DHT22;4094;49.948;11.574;2024-03-08T11:52:23;17.00;44.10
8103;DHT22;4094;49.948;11.574;2024-03-08T11:55:13;17.20;43.10
8103;DHT22;4094;49.948;11.574;2024-03-08T11:58:04;17.30;43.60
8103;DHT22;4094;49.948;11.574;2024-03-08T12:01:03;17.50;42.80
8103;DHT22;4094;49.948;11.574;2024-03-08T12:03:56;17.80;43.70
8103;DHT22;4094;49.948;11.574;2024-03-08T12:06:47;18.10;43.20
8103;DHT22;4094;49.948;11.574;2024-03-08T12:09:36;18.60;42.90
8103;DHT22;4094;49.948;11.574;2024-03-08T12:12:28;19.10;43.10
8103;DHT22;4094;49.948;11.574;2024-03-08T12:15:18;19.50;40.70
8103;DHT22;4094;49.948;11.574;2024-03-08T12:18:08;19.90;40.40
8103;DHT22;4094;49.948;11.574;2024-03-08T12:21:06;20.20;40.30
8103;DHT22;4094;49.948;11.574;2024-03-08T12:24:04;20.50;40.00
8103;DHT22;4094;49.948;11.574;2024-03-08T12:26:57;21.10;39.10
8103;DHT22;4094;49.948;11.574;2024-03-08T12:29:46;21.60;39.00
8103;DHT22;4094;49.948;11.574;2024-03-08T12:32:36;22.10;36.70
8103;DHT22;4094;49.948;11.574;2024-03-08T12:35:28;22.60;37.30
8103;DHT22;4094;49.948;11.574;2024-03-08T12:38:19;22.90;36.70
8103;DHT22;4094;49.948;11.574;2024-03-08T12:41:12;23.30;36.30
8103;DHT22;4094;49.948;11.574;2024-03-08T12:44:01;23.60;34.80
8103;DHT22;4094;49.948;11.574;2024-03-08T12:46:55;23.90;34.90
8103;DHT22;4094;49.948;11.574;2024-03-08T12:49:47;24.00;33.80
8103;DHT22;4094;49.948;11.574;2024-03-08T12:52:36;24.10;33.80
8103;DHT22;4094;49.948;11.574;2024-03-08T12:55:27;24.20;34.10
8103;DHT22;4094;49.948;11.574;2024-03-08T12:58:17;24.30;33.90
8103;DHT22;4094;49.948;11.574;2024-03-08T13:01:08;24.20;33.30
8103;DHT22;4094;49.948;11.574;2024-03-08T13:03:58;24.00;33.10
8103;DHT22;4094;49.948;11.574;2024-03-08T13:06:48;23.80;33.30
8103;DHT22;4094;49.948;11.574;2024-03-08T13:09:42;23.40;33.10
8103;DHT22;4094;49.948;11.574;2024-03-08T13:12:33;22.90;33.20
8103;DHT22;4094;49.948;11.574;2024-03-08T13:15:26;22.60;33.50
8103;DHT22;4094;49.948;11.574;2024-03-08T13:18:17;22.00;33.60
8103;DHT22;4094;49.948;11.574;2024-03-08T13:21:06;21.50;33.60
8103;DHT22;4094;49.948;11.574;2024-03-08T13:23:56;20.90;34.40
8103;DHT22;4094;49.948;11.574;2024-03-08T13:26:47;20.40;35.10
8103;DHT22;4094;49.948;11.574;2024-03-08T13:29:39;19.90;35.20
8103;DHT22;4094;49.948;11.574;2024-03-08T13:32:29;19.40;36.00
8103;DHT22;4094;49.948;11.574;2024-03-08T13:35:19;18.90;36.40
8103;DHT22;4094;49.948;11.574;2024-03-08T13:38:14;18.60;36.90
8103;DHT22;4094;49.948;11.574;2024-03-08T13:41:03;18.20;37.10
8103;DHT22;4094;49.948;11.574;2024-03-08T13:43:53;17.80;37.10
8103;DHT22;4094;49.948;11.574;2024-03-08T13:46:46;17.50;37.60
8103;DHT22;4094;49.948;11.574;2024-03-08T13:49:41;17.10;38.10
8103;DHT22;4094;49.948;11.574;2024-03-08T13:52:31;16.70;38.40
8103;DHT22;4094;49.948;11.574;2024-03-08T13:55:22;16.40;38.70
8103;DHT22;4094;49.948;11.574;2024-03-08T13:58:13;16.20;39.00
8103;DHT22;4094;49.948;11.574;2024-03-08T14:01:04;16.00;38.60
8103;DHT22;4094;49.948;11.574;2024-03-08T14:04:01;15.70;38.70
8103;DHT22;4094;49.948;11.574;2024-03-08T14:06:52;15.40;38.80
8103;DHT22;4094;49.948;11.574;2024-03-08T14:09:47;15.20;39.50
8103;DHT22;4094;49.948;11.574;2024-03-08T14:12:37;15.00;40.10
8103;DHT22;4094;49.948;11.574;2024-03-08T14:15:27;14.80;40.60
8103;DHT22;4094;49.948;11.574;2024-03-08T14:18:16;14.70;41.10
8103;DHT22;4094;49.948;11.574;2024-03-08T14:21:07;14.60;41.30
8103;DHT22;4094;49.948;11.574;2024-03-08T14:23:58;14.50;41.50
8103;DHT22;4094;49.948;11.574;2024-03-08T14:26:48;14.40;41.60
8103;DHT22;4094;49.948;11.574;2024-03-08T14:29:38;14.30;41.60
8103;DHT22;4094;49.948;11.574;2024-03-08T14:32:27;14.20;41.50
8103;DHT22;4094;49.948;11.574;2024-03-08T14:35:17;14.10;41.60
8103;DHT22;4094;49.948;11.574;2024-03-08T14:38:09;14.00;41.80
8103;DHT22;4094;49.948;11.574;2024-03-08T14:41:00;14.00;42.20
8103;DHT22;4094;49.948;11.574;2024-03-08T14:43:49;13.90;42.20
8103;DHT22;4094;49.948;11.574;2024-03-08T14:46:41;13.80;42.00
8103;DHT22;4094;49.948;11.574;2024-03-08T14:49:31;13.70;42.40
8103;DHT22;4094;49.948;11.574;2024-03-08T14:52:22;13.70;42.50
8103;DHT22;4094;49.948;11.574;2024-03-08T14:55:20;13.60;42.60
8103;DHT22;4094;49.948;11.574;2024-03-08T14:58:10;13.50;42.80
8103;DHT22;4094;49.948;11.574;2024-03-08T15:00:59;13.50;42.80
8103;DHT22;4094;49.948;11.574;2024-03-08T15:03:50;13.50;42.90
8103;DHT22;4094;49.948;11.574;2024-03-08T15:06:40;13.50;42.80
8103;DHT22;4094;49.948;11.574;2024-03-08T15:09:30;13.40;43.10
8103;DHT22;4094;49.948;11.574;2024-03-08T15:12:29;13.40;43.00
8103;DHT22;4094;49.948;11.574;2024-03-08T15:15:18;13.40;43.10
8103;DHT22;4094;49.948;11.574;2024-03-08T15:18:08;13.30;42.90
8103;DHT22;4094;49.948;11.574;2024-03-08T15:20:58;13.30;43.00
8103;DHT22;4094;49.948;11.574;2024-03-08T15:23:48;13.30;43.10
8103;DHT22;4094;49.948;11.574;2024-03-08T15:26:40;13.20;43.20
8103;DHT22;4094;49.948;11.574;2024-03-08T15:29:32;13.20;43.30
8103;DHT22;4094;49.948;11.574;2024-03-08T15:32:23;13.20;44.20
8103;DHT22;4094;49.948;11.574;2024-03-08T15:35:15;13.20;43.70
8103;DHT22;4094;49.948;11.574;2024-03-08T15:38:04;13.20;43.60
8103;DHT22;4094;49.948;11.574;2024-03-08T15:40:54;13.20;43.80
8103;DHT22;4094;49.948;11.574;2024-03-08T15:43:43;13.20;43.80
8103;DHT22;4094;49.948;11.574;2024-03-08T15:46:34;13.20;43.70
8103;DHT22;4094;49.948;11.574;2024-03-08T15:49:24;13.20;43.80
8103;DHT22;4094;49.948;11.574;2024-03-08T15:52:14;13.20;43.60
8103;DHT22;4094;49.948;11.574;2024-03-08T15:55:04;13.20;43.60
8103;DHT22;4094;49.948;11.574;2024-03-08T15:57:53;13.10;43.40
8103;DHT22;4094;49.948;11.574;2024-03-08T16:00:43;13.10;43.10
8103;DHT22;4094;49.948;11.574;2024-03-08T16:03:35;13.10;43.00
8103;DHT22;4094;49.948;11.574;2024-03-08T16:06:25;13.00;43.10
8103;DHT22;4094;49.948;11.574;2024-03-08T16:09:14;13.00;43.20
8103;DHT22;4094;49.948;11.574;2024-03-08T16:12:04;12.90;43.30
8103;DHT22;4094;49.948;11.574;2024-03-08T16:14:53;12.90;43.80
8103;DHT22;4094;49.948;11.574;2024-03-08T16:17:43;12.80;43.60
8103;DHT22;4094;49.948;11.574;2024-03-08T16:20:34;12.80;43.80
8103;DHT22;4094;49.948;11.574;2024-03-08T16:23:24;12.80;44.10
8103;DHT22;4094;49.948;11.574;2024-03-08T16:26:14;12.70;44.10
8103;DHT22;4094;49.948;11.574;2024-03-08T16:29:03;12.60;44.00
8103;DHT22;4094;49.948;11.574;2024-03-08T16:31:53;12.60;44.10
8103;DHT22;4094;49.948;11.574;2024-03-08T16:34:43;12.60;44.20
8103;DHT22;4094;49.948;11.574;2024-03-08T16:37:34;12.50;44.20
8103;DHT22;4094;49.948;11.574;2024-03-08T16:40:24;12.50;44.20
8103;DHT22;4094;49.948;11.574;2024-03-08T16:43:13;12.30;44.30
8103;DHT22;4094;49.948;11.574;2024-03-08T16:46:03;12.30;44.30
8103;DHT22;4094;49.948;11.574;2024-03-08T16:48:53;12.20;44.40
8103;DHT22;4094;49.948;11.574;2024-03-08T16:51:42;12.10;44.60
8103;DHT22;4094;49.948;11.574;2024-03-08T16:54:33;12.00;44.80
8103;DHT22;4094;49.948;11.574;2024-03-08T16:57:38;12.00;44.70
8103;DHT22;4094;49.948;11.574;2024-03-08T17:00:31;11.90;44.90
8103;DHT22;4094;49.948;11.574;2024-03-08T17:03:21;11.90;45.00
8103;DHT22;4094;49.948;11.574;2024-03-08T17:06:11;11.70;45.00
8103;DHT22;4094;49.948;11.574;2024-03-08T17:09:03;11.70;45.20
8103;DHT22;4094;49.948;11.574;2024-03-08T17:12:01;11.60;45.40
8103;DHT22;4094;49.948;11.574;2024-03-08T17:14:52;11.50;45.70
8103;DHT22;4094;49.948;11.574;2024-03-08T17:17:41;11.50;45.80
8103;DHT22;4094;49.948;11.574;2024-03-08T17:20:31;11.40;45.90
8103;DHT22;4094;49.948;11.574;2024-03-08T17:23:24;11.40;46.10
8103;DHT22;4094;49.948;11.574;2024-03-08T17:26:14;11.40;46.30
8103;DHT22;4094;49.948;11.574;2024-03-08T17:29:07;11.30;46.30
8103;DHT22;4094;49.948;11.574;2024-03-08T17:31:57;11.30;46.50
8103;DHT22;4094;49.948;11.574;2024-03-08T17:34:46;11.30;46.50
8103;DHT22;4094;49.948;11.574;2024-03-08T17:37:36;11.30;46.60
8103;DHT22;4094;49.948;11.574;2024-03-08T17:40:26;11.20;46.90
8103;DHT22;4094;49.948;11.574;2024-03-08T17:43:16;11.20;47.10
8103;DHT22;4094;49.948;11.574;2024-03-08T17:46:12;11.10;47.20
8103;DHT22;4094;49.948;11.574;2024-03-08T17:49:01;11.10;47.40
8103;DHT22;4094;49.948;11.574;2024-03-08T17:51:54;11.10;47.40
8103;DHT22;4094;49.948;11.574;2024-03-08T17:54:45;11.00;47.30
8103;DHT22;4094;49.948;11.574;2024-03-08T17:57:35;11.00;47.70
8103;DHT22;4094;49.948;11.574;2024-03-08T18:00:28;11.00;47.80
8103;DHT22;4094;49.948;11.574;2024-03-08T18:03:21;10.90;47.70
8103;DHT22;4094;49.948;11.574;2024-03-08T18:06:16;10.90;47.90
8103;DHT22;4094;49.948;11.574;2024-03-08T18:09:05;10.80;47.90
8103;DHT22;4094;49.948;11.574;2024-03-08T18:11:57;10.80;48.10
8103;DHT22;4094;49.948;11.574;2024-03-08T18:14:47;10.70;48.70
8103;DHT22;4094;49.948;11.574;2024-03-08T18:17:36;10.60;48.40
8103;DHT22;4094;49.948;11.574;2024-03-08T18:20:29;10.60;48.40
8103;DHT22;4094;49.948;11.574;2024-03-08T18:23:19;10.60;49.00
8103;DHT22;4094;49.948;11.574;2024-03-08T18:26:09;10.60;49.10